Opa-locka Executive Airport
KOPF : now visible

Airfield :











YOU CAN JOIN US ON...

 
LOGIN :

Register | Disclaimer

   EN    FR    IT 

 









Legend :    VFR   Marginal VFR   IFR   Intensive IFR   Very Intensive IFR
Visi :
Ceiling :
>= 8 km
>= 3000ft
5 to 8 km
1000 to 3000 ft
1500m to 5 km
500 to 1000 ft
800 to 1500m
200 to 500 ft
< 800m
< 200 ft
Symbols :   Thunderstorms  Fog  Heavy snow  Heavy precipitations  Wind > 20 kt






- Airport Elevation : 8 ft


KOPF - Opa-locka Executive

CURRENT METAR :
  • 050053Z 00000KT 10SM CLR 27/21 A3007 RMK AO2 SLP182 T02720211

EXPIRED METARs :
  • 042353Z 34004KT 10SM CLR 28/21 A3005 RMK AO2 SLP177 60003 T02780211 10289 20239 53001
  • 042253Z 08003KT 10SM CLR 28/21 A3004 RMK AO2 SLP172 T02830211

TAF KOPF
Valid from the 05 at 00:00 until the 06 at 00:00 UTC


042320Z 0500/0524 23006KT P6SM VCSH SCT035 BKN050
FM050200 VRB03KT P6SM SCT025 BKN150
FM051400 13008KT P6SM VCSH SCT025 BKN050
PROB30 0517/0519 6SM TSRA SCT025CB BKN035
KZMA FIR / North America



MET'MAP, your aeronautical weather chart ! - Copyright ORBIFLY December 2007 - Disclaimer

ORBIFLY MET'MAP TEAM :

Programming & Development : Alexandra Zaïnal
Concept & original design : Baudouin d'Aumeries
Assistance for programming : Marc-Olivier Méhu
Technical & hardware support : Manuel Goepfert

Contact : metmap@orbifly.com




SOURCES & CREDITS :

   NOAA       Earth
Advisory